Boise

Airport
ICAO code: 
KBOI
Summary
ICAO Region: 
NAM
Territory: 
Location: 
Ada County, Idaho,
Coordinates: 
Aerial View: 
43° 33' 51.795" N, 116° 13' 24.728" W
Airport CFIT: 
Altimeter Temperature Error Correction
Airport LOS: 
Parallel Runway Operation
Metar
Observation
KBOI 011353Z 17003KT 5SM BR CLR 01/M01 A3040 RMK AO2 SLP307 T00061011 $
Station
Boise, Boise Air Terminal
Date/Time
2021-12-01 13:53:00
Wind direction
170°
Wind speed
03 kts
Lowest cloud amount
n/a
Temperature
0.6°C
Dew point
-1.1°C
Humidity
88%
Weather condition
mist

Description

Boise Airport, also known as Boise Air Terminal or Gowen Field, is a joint civil-military, commercial and general aviation airport located 3 nm south of downtown Boise in Ada County, Idaho, USA.

Climatology

Cold Semi-arid climate (Köppen climate classification BSk). - Hot, sometimes extremely hot summers and cold, sometimes very cold winters. Some snowfall during the winter. Areas featuring cold semi-arid climates are sometimes subject to major temperature swings during a 24 hour period.

Runways

Designator Length Width Surface Rops
9/27 1524 23 ASP No/No
10R/28L 2976 46 ASP Yes/Yes
10L/28R 3048 46 ASP Yes/Yes
Airport map: 
Aerial View: 

SKYbrary Partners:

Safety knowledge contributed by: